Who's Online

We have 2 guests online

Aviation WX

[source: ADDS]
KIAD 090052Z 16003KT 10SM SCT250 18/14 A3008 RMK AO2 SLP185 T01830139 =
KIAD 082336Z 0900/1006 16004KT P6SM SCT050 BKN250 FM091000 19007KT 5SM BR BKN110 FM091400 22008KT P6SM BKN050 FM091900 23010KT P6SM -SHRA BKN050 FM092300 25006KT P6SM -SHRA OVC050 FM100100 27005KT P6SM OVC110 =
SR / SS: 00:54 / 12:24 UTC (Washington-Dulles 2015-10-08)

JoomlaWatch Agent

Home Products and Services

This section describes Multilink Systems products and services



Under construction Please Standby